createdAt,value
2019-03-22T00:01:13.213Z,17.35
2019-03-22T00:03:44.625Z,18.42
2019-03-22T00:06:16.626Z,18.50
2019-03-22T00:08:47.644Z,18.05
2019-03-22T00:11:18.963Z,18.77
2019-03-22T00:13:50.229Z,18.90
2019-03-22T00:16:22.049Z,19.37
2019-03-22T00:19:02.073Z,19.85
2019-03-22T00:21:34.671Z,22.95
2019-03-22T00:24:05.773Z,25.40
2019-03-22T00:26:37.126Z,25.72
2019-03-22T00:29:08.272Z,25.65
2019-03-22T00:31:39.401Z,24.75
2019-03-22T00:34:11.064Z,20.88
2019-03-22T00:36:45.138Z,20.97
2019-03-22T00:39:16.226Z,21.02
2019-03-22T00:41:47.577Z,24.43
2019-03-22T00:44:26.228Z,31.27
2019-03-22T00:47:01.092Z,24.63
2019-03-22T00:49:34.357Z,28.45
2019-03-22T00:52:07.330Z,26.23
2019-03-22T00:54:39.803Z,22.48
2019-03-22T00:57:13.143Z,29.85
2019-03-22T00:59:45.202Z,43.92
2019-03-22T01:02:17.313Z,34.10
2019-03-22T01:04:48.797Z,26.37
2019-03-22T01:07:19.810Z,25.75
2019-03-22T01:09:50.986Z,29.98
2019-03-22T01:12:22.163Z,30.37
2019-03-22T01:14:53.221Z,27.52
2019-03-22T01:17:24.261Z,31.25
2019-03-22T01:19:55.407Z,30.35
2019-03-22T01:22:26.463Z,28.10
2019-03-22T01:24:57.496Z,26.73
2019-03-22T01:27:39.522Z,23.02
2019-03-22T01:30:02.440Z,23.98
2019-03-22T01:32:36.503Z,23.92
2019-03-22T01:35:09.882Z,22.58
2019-03-22T01:37:42.365Z,22.73
2019-03-22T01:40:15.056Z,21.40
2019-03-22T01:42:46.502Z,20.48
2019-03-22T01:45:17.672Z,21.07
2019-03-22T01:47:48.756Z,20.90
2019-03-22T01:50:19.889Z,19.42
2019-03-22T01:52:50.883Z,19.57
2019-03-22T01:55:21.998Z,18.40
2019-03-22T01:57:54.095Z,17.57
2019-03-22T02:00:25.447Z,18.98
2019-03-22T02:02:56.679Z,17.95
2019-03-22T02:05:28.742Z,17.02
2019-03-22T02:08:01.914Z,17.77
2019-03-22T02:11:05.495Z,18.87
2019-03-22T02:13:37.149Z,18.35
2019-03-22T02:16:08.199Z,19.87
2019-03-22T02:18:40.943Z,19.20
2019-03-22T02:21:33.609Z,19.00
2019-03-22T02:24:05.516Z,18.90
2019-03-22T02:26:37.560Z,18.87
2019-03-22T02:29:08.548Z,20.70
2019-03-22T02:31:39.642Z,21.00
2019-03-22T02:34:10.732Z,22.13
2019-03-22T02:36:41.870Z,22.10
2019-03-22T02:39:13.769Z,27.55
2019-03-22T02:41:45.275Z,33.75
2019-03-22T02:44:16.488Z,34.25
2019-03-22T02:46:47.707Z,31.73
2019-03-22T02:49:18.776Z,29.80
2019-03-22T02:51:49.922Z,32.67
2019-03-22T02:54:20.963Z,32.90
2019-03-22T02:56:52.116Z,31.82
2019-03-22T02:59:23.350Z,32.83
2019-03-22T03:01:54.483Z,31.60
2019-03-22T03:04:26.632Z,31.97
2019-03-22T03:06:59.383Z,32.55
2019-03-22T03:09:30.898Z,32.73
2019-03-22T03:12:02.344Z,33.48
2019-03-22T03:14:33.565Z,34.48
2019-03-22T03:17:04.620Z,33.80
2019-03-22T03:19:36.775Z,33.05
2019-03-22T03:22:07.767Z,36.03
2019-03-22T03:24:38.788Z,34.58
2019-03-22T03:27:09.933Z,35.10
2019-03-22T03:29:40.970Z,36.60
2019-03-22T03:32:12.154Z,37.58
2019-03-22T03:34:43.149Z,38.38
2019-03-22T03:37:14.200Z,37.45
2019-03-22T03:39:45.228Z,37.95
2019-03-22T03:42:16.350Z,38.67
2019-03-22T03:44:47.322Z,35.38
2019-03-22T03:47:18.465Z,37.85
2019-03-22T03:49:49.583Z,35.20
2019-03-22T03:52:20.633Z,34.08
2019-03-22T03:54:51.686Z,31.52
2019-03-22T03:57:22.976Z,34.18
2019-03-22T03:59:53.950Z,32.25
2019-03-22T04:02:25.483Z,32.73
2019-03-22T04:04:58.841Z,33.00
2019-03-22T04:07:30.004Z,32.63
2019-03-22T04:10:05.865Z,30.57
2019-03-22T04:12:39.995Z,28.92
2019-03-22T04:17:41.373Z,29.55
2019-03-22T04:20:12.452Z,30.35
2019-03-22T04:22:43.482Z,31.62
2019-03-22T04:25:14.621Z,30.05
2019-03-22T04:27:45.676Z,33.08
2019-03-22T04:30:17.156Z,35.03
2019-03-22T04:32:50.973Z,33.65
2019-03-22T04:35:22.774Z,36.45
2019-03-22T04:37:54.154Z,48.25
2019-03-22T04:40:26.894Z,42.83
2019-03-22T04:42:58.031Z,45.77
2019-03-22T04:45:33.658Z,52.15
2019-03-22T04:48:11.063Z,60.48
2019-03-22T04:50:42.125Z,59.30
2019-03-22T04:53:14.171Z,63.60
2019-03-22T04:55:46.654Z,66.70
2019-03-22T04:58:17.861Z,57.40
2019-03-22T05:00:49.990Z,54.63
2019-03-22T05:03:21.152Z,55.48
2019-03-22T05:05:54.425Z,58.42
2019-03-22T05:08:25.411Z,60.85
2019-03-22T05:10:56.434Z,59.88
2019-03-22T05:13:27.727Z,57.62
2019-03-22T05:16:01.259Z,57.58
2019-03-22T05:18:34.350Z,56.15
2019-03-22T05:21:05.407Z,51.40
2019-03-22T05:23:36.527Z,52.45
2019-03-22T05:26:08.076Z,49.10
2019-03-22T05:28:39.588Z,49.05
2019-03-22T05:31:19.572Z,50.48
2019-03-22T05:33:50.726Z,50.95
2019-03-22T05:36:22.547Z,53.40
2019-03-22T05:38:54.594Z,53.20
2019-03-22T05:44:34.802Z,58.95
2019-03-22T05:47:06.867Z,55.65
2019-03-22T05:50:03.245Z,54.63
2019-03-22T05:52:43.303Z,54.75
2019-03-22T05:55:14.365Z,52.27
2019-03-22T05:57:45.494Z,52.53
2019-03-22T06:00:17.910Z,48.73
2019-03-22T06:02:49.006Z,47.83
2019-03-22T06:05:20.144Z,46.63
2019-03-22T06:07:51.258Z,40.03
2019-03-22T06:10:22.341Z,39.05
2019-03-22T06:12:53.825Z,36.50
2019-03-22T06:15:24.903Z,37.20
2019-03-22T06:17:57.841Z,38.23
2019-03-22T06:20:32.139Z,36.85
2019-03-22T06:23:03.512Z,35.40
2019-03-22T06:25:34.691Z,34.98
2019-03-22T06:28:05.965Z,32.73
2019-03-22T06:30:42.415Z,30.35
2019-03-22T06:33:13.497Z,29.27
2019-03-22T06:35:44.626Z,29.10
2019-03-22T06:38:15.619Z,31.75
2019-03-22T06:40:46.613Z,28.52
2019-03-22T06:43:17.696Z,30.23
2019-03-22T06:45:48.792Z,30.37
2019-03-22T06:48:19.882Z,27.40
2019-03-22T06:50:50.973Z,30.30
2019-03-22T06:53:22.181Z,29.92
2019-03-22T06:55:54.808Z,28.87
2019-03-22T06:58:32.875Z,25.97
2019-03-22T07:01:03.948Z,30.77
2019-03-22T07:03:35.040Z,28.65
2019-03-22T07:06:07.084Z,34.05
2019-03-22T07:08:38.199Z,34.30
2019-03-22T07:11:09.343Z,40.78
2019-03-22T07:13:40.449Z,47.85
2019-03-22T07:16:11.451Z,59.27
2019-03-22T07:18:42.589Z,55.30
2019-03-22T07:21:13.613Z,49.67
2019-03-22T07:23:44.748Z,46.73
2019-03-22T07:26:15.809Z,42.30
2019-03-22T07:28:46.835Z,39.03
2019-03-22T07:31:17.970Z,38.08
2019-03-22T07:33:49.027Z,36.85
2019-03-22T07:36:23.337Z,37.55
2019-03-22T07:38:54.537Z,34.18
2019-03-22T07:41:25.633Z,33.18
2019-03-22T07:43:56.618Z,33.25
2019-03-22T07:46:27.713Z,30.70
2019-03-22T07:48:58.824Z,29.52
2019-03-22T07:51:29.795Z,31.97
2019-03-22T07:54:03.542Z,32.03
2019-03-22T07:56:33.620Z,29.40
2019-03-22T07:59:04.630Z,26.42
2019-03-22T08:01:35.721Z,26.93
2019-03-22T08:04:06.755Z,27.80
2019-03-22T08:06:37.787Z,27.32
2019-03-22T08:09:09.446Z,28.10
2019-03-22T08:11:40.604Z,24.75
2019-03-22T08:14:11.693Z,24.85
2019-03-22T08:16:42.665Z,23.80
2019-03-22T08:19:13.720Z,23.00
2019-03-22T08:23:59.413Z,21.40
2019-03-22T08:26:30.536Z,21.45
2019-03-22T08:29:02.898Z,21.15
2019-03-22T08:31:33.912Z,19.85
2019-03-22T08:34:05.073Z,16.93
2019-03-22T08:36:36.188Z,16.77
2019-03-22T08:39:08.648Z,16.35
2019-03-22T08:41:39.688Z,15.93
2019-03-22T08:44:10.729Z,16.37
2019-03-22T08:46:44.962Z,16.67
2019-03-22T08:49:15.811Z,15.28
2019-03-22T08:51:49.515Z,16.07
2019-03-22T08:54:19.609Z,15.03
2019-03-22T08:56:50.741Z,13.13
2019-03-22T08:59:21.802Z,12.23
2019-03-22T09:01:52.962Z,11.75
2019-03-22T09:04:23.952Z,11.10
2019-03-22T09:06:54.928Z,11.68
2019-03-22T09:09:26.090Z,12.90
2019-03-22T09:11:57.141Z,12.60
2019-03-22T09:14:28.239Z,11.45
2019-03-22T09:16:59.634Z,9.10
2019-03-22T09:19:31.043Z,9.05
2019-03-22T09:22:02.154Z,10.20
2019-03-22T09:24:39.012Z,8.83
2019-03-22T09:27:06.150Z,11.18
2019-03-22T09:29:37.835Z,9.88
2019-03-22T09:32:08.973Z,10.93
2019-03-22T09:34:40.065Z,10.85
2019-03-22T09:37:11.243Z,11.80
2019-03-22T09:39:42.328Z,10.88
2019-03-22T09:42:13.375Z,11.08
2019-03-22T09:44:45.301Z,12.47
2019-03-22T09:47:17.033Z,12.60
2019-03-22T09:49:51.034Z,12.23
2019-03-22T09:52:21.528Z,12.55
2019-03-22T09:54:54.221Z,11.55
2019-03-22T09:57:25.277Z,13.03
2019-03-22T09:59:56.631Z,12.30
2019-03-22T10:02:27.840Z,13.15
2019-03-22T10:04:59.211Z,15.00
2019-03-22T10:07:30.346Z,14.70
2019-03-22T10:10:02.559Z,16.67
2019-03-22T10:12:33.867Z,13.58
2019-03-22T10:15:06.627Z,13.53
2019-03-22T10:17:37.708Z,12.63
2019-03-22T10:20:08.799Z,13.95
2019-03-22T10:22:39.938Z,13.70
2019-03-22T10:25:11.090Z,13.25
2019-03-22T10:27:42.166Z,15.15
2019-03-22T10:30:15.070Z,15.40
2019-03-22T10:32:46.103Z,15.78
2019-03-22T10:35:25.918Z,16.93
2019-03-22T10:37:49.943Z,19.03
2019-03-22T10:40:20.991Z,16.73
2019-03-22T10:42:51.956Z,16.50
2019-03-22T10:45:23.084Z,17.73
2019-03-22T10:47:54.562Z,16.65
2019-03-22T10:50:25.949Z,16.65
2019-03-22T10:52:57.080Z,17.00
2019-03-22T10:55:30.343Z,16.30
2019-03-22T10:58:01.076Z,18.30
2019-03-22T11:00:32.502Z,15.78
2019-03-22T11:03:03.670Z,16.15
2019-03-22T11:05:34.756Z,14.28
2019-03-22T11:08:05.901Z,14.70
2019-03-22T11:10:36.954Z,14.07
2019-03-22T11:13:08.104Z,14.63
2019-03-22T11:15:48.102Z,15.85
2019-03-22T11:18:12.073Z,14.93
2019-03-22T11:20:43.042Z,12.28
2019-03-22T11:23:14.100Z,12.63
2019-03-22T11:25:45.139Z,12.53
2019-03-22T11:28:16.550Z,13.20
2019-03-22T11:30:47.771Z,14.20
2019-03-22T11:33:18.886Z,13.93
2019-03-22T11:35:50.028Z,13.13
2019-03-22T11:38:22.925Z,14.83
2019-03-22T11:40:53.945Z,13.90
2019-03-22T11:43:25.668Z,15.25
2019-03-22T11:45:56.847Z,15.80
2019-03-22T11:48:28.063Z,14.53
2019-03-22T11:50:59.052Z,14.10
2019-03-22T11:53:30.073Z,14.63
2019-03-22T11:56:01.108Z,16.82
2019-03-22T11:58:32.272Z,15.90
2019-03-22T12:01:03.468Z,13.38
2019-03-22T12:03:34.552Z,11.48
2019-03-22T12:06:05.770Z,12.28
2019-03-22T12:08:37.207Z,12.68
2019-03-22T12:11:08.287Z,12.65
2019-03-22T12:13:39.342Z,13.88
2019-03-22T12:16:10.476Z,14.15
2019-03-22T12:18:41.510Z,11.63
2019-03-22T12:21:12.553Z,10.18
2019-03-22T12:23:43.607Z,11.30
2019-03-22T12:26:14.954Z,11.88
2019-03-22T12:28:46.398Z,12.35
2019-03-22T12:31:19.419Z,12.60
2019-03-22T12:33:50.420Z,11.88
2019-03-22T12:36:21.523Z,11.28
2019-03-22T12:38:52.683Z,13.13
2019-03-22T12:41:24.125Z,12.50
2019-03-22T12:43:55.177Z,11.78
2019-03-22T12:46:26.286Z,11.20
2019-03-22T12:48:57.410Z,10.82
2019-03-22T12:51:28.437Z,11.43
2019-03-22T12:53:59.490Z,11.53
2019-03-22T12:56:30.553Z,11.55
2019-03-22T12:59:01.661Z,12.33
2019-03-22T13:01:32.805Z,13.40
2019-03-22T13:04:03.846Z,15.63
2019-03-22T13:06:34.888Z,15.28
2019-03-22T13:09:08.098Z,18.00
2019-03-22T13:11:39.223Z,17.95
2019-03-22T13:14:10.272Z,12.98
2019-03-22T13:16:41.486Z,13.68
2019-03-22T13:19:14.071Z,17.73
2019-03-22T13:21:45.128Z,15.98
2019-03-22T13:24:16.257Z,18.95
2019-03-22T13:26:47.239Z,20.02
2019-03-22T13:29:18.360Z,19.40
2019-03-22T13:31:49.398Z,22.65
2019-03-22T13:34:20.478Z,22.05
2019-03-22T13:36:51.672Z,27.10
2019-03-22T13:39:22.769Z,20.80
2019-03-22T13:41:53.873Z,18.45
2019-03-22T13:44:25.019Z,15.72
2019-03-22T13:46:56.052Z,13.40
2019-03-22T13:49:27.042Z,14.58
2019-03-22T13:51:58.134Z,12.68
2019-03-22T13:54:29.277Z,13.10
2019-03-22T13:57:00.326Z,15.55
2019-03-22T13:59:31.574Z,15.25
2019-03-22T14:02:02.777Z,16.93
2019-03-22T14:04:33.898Z,20.85
2019-03-22T14:07:04.997Z,22.55
2019-03-22T14:09:36.189Z,20.65
2019-03-22T14:12:07.355Z,20.12
2019-03-22T14:14:38.447Z,21.57
2019-03-22T14:17:09.492Z,20.57
2019-03-22T14:19:40.573Z,21.52
2019-03-22T14:22:11.664Z,22.00
2019-03-22T14:24:42.697Z,21.52
2019-03-22T14:27:13.905Z,20.65
2019-03-22T14:29:45.097Z,19.87
2019-03-22T14:32:16.202Z,21.42
2019-03-22T14:34:47.268Z,19.48
2019-03-22T14:37:18.315Z,20.15
2019-03-22T14:39:49.386Z,19.00
2019-03-22T14:42:20.402Z,18.85
2019-03-22T14:44:51.434Z,18.62
2019-03-22T14:47:22.602Z,21.17
2019-03-22T14:49:53.733Z,22.27
2019-03-22T14:52:24.885Z,26.82
2019-03-22T14:54:55.931Z,42.93
2019-03-22T14:57:26.927Z,53.17
2019-03-22T14:59:59.207Z,54.53
2019-03-22T15:02:30.415Z,51.98
2019-03-22T15:05:01.509Z,40.33
2019-03-22T15:07:33.702Z,38.05
2019-03-22T15:10:13.223Z,34.65
2019-03-22T15:12:44.363Z,32.30
2019-03-22T15:15:26.221Z,26.33
2019-03-22T15:17:58.846Z,25.62
2019-03-22T15:20:31.467Z,26.57
2019-03-22T15:23:06.991Z,26.20
2019-03-22T15:25:45.590Z,27.15
2019-03-22T15:28:30.576Z,25.80
2019-03-22T15:31:03.359Z,28.15
2019-03-22T15:33:36.068Z,28.77
2019-03-22T15:36:08.818Z,32.33
2019-03-22T15:38:58.481Z,30.82
2019-03-22T15:41:29.833Z,28.95
2019-03-22T15:44:00.975Z,27.48
2019-03-22T15:46:31.992Z,27.02
2019-03-22T15:49:03.330Z,28.87
2019-03-22T15:51:34.510Z,29.48
2019-03-22T15:54:05.668Z,29.67
2019-03-22T15:56:36.843Z,31.82
2019-03-22T15:59:08.145Z,32.93
2019-03-22T16:01:39.207Z,30.85
2019-03-22T16:04:10.251Z,27.02
2019-03-22T16:06:41.385Z,16.20
2019-03-22T16:09:12.500Z,4.45
2019-03-22T16:11:43.702Z,4.55
2019-03-22T16:14:14.734Z,3.92
2019-03-22T16:16:45.845Z,2.45
2019-03-22T16:19:17.346Z,2.40
2019-03-22T16:21:48.220Z,2.80
2019-03-22T16:24:19.176Z,2.55
2019-03-22T16:26:50.169Z,5.92
2019-03-22T16:29:21.518Z,3.42
2019-03-22T16:31:52.636Z,3.40
2019-03-22T16:34:23.550Z,4.42
2019-03-22T16:36:54.664Z,3.70
2019-03-22T16:39:25.658Z,5.83
2019-03-22T16:41:56.848Z,4.90
2019-03-22T16:44:27.897Z,6.05
2019-03-22T16:46:59.156Z,5.15
2019-03-22T16:49:37.667Z,11.40
2019-03-22T16:52:16.065Z,12.82
2019-03-22T16:54:47.491Z,15.28
2019-03-22T16:57:20.686Z,15.13
2019-03-22T16:59:51.851Z,8.83
2019-03-22T17:02:23.020Z,11.12
2019-03-22T17:04:54.237Z,11.60
2019-03-22T17:07:25.734Z,10.03
2019-03-22T17:09:56.823Z,11.48
2019-03-22T17:12:27.963Z,8.28
2019-03-22T17:14:59.148Z,9.00
2019-03-22T17:17:31.471Z,9.13
2019-03-22T17:20:02.644Z,8.08
2019-03-22T17:22:34.155Z,9.20
2019-03-22T17:25:07.052Z,5.83
2019-03-22T17:27:39.037Z,5.20
2019-03-22T17:30:11.411Z,7.42
2019-03-22T17:32:42.485Z,6.08
2019-03-22T17:35:13.574Z,5.15
2019-03-22T17:37:44.596Z,7.35
2019-03-22T17:40:16.097Z,10.25
2019-03-22T17:42:47.430Z,7.87
2019-03-22T17:45:19.487Z,8.88
2019-03-22T17:47:50.520Z,10.68
2019-03-22T17:50:22.068Z,7.75
2019-03-22T17:52:53.057Z,13.58
2019-03-22T17:55:24.146Z,8.83
2019-03-22T17:57:55.269Z,7.78
2019-03-22T18:00:27.869Z,10.08
2019-03-22T18:02:59.578Z,6.72
2019-03-22T18:05:30.654Z,10.18
2019-03-22T18:08:01.628Z,10.88
2019-03-22T18:10:32.978Z,7.97
2019-03-22T18:13:05.907Z,8.20
2019-03-22T18:15:37.067Z,7.97
2019-03-22T18:18:08.306Z,6.30
2019-03-22T18:20:39.496Z,7.67
2019-03-22T18:23:10.587Z,10.13
2019-03-22T18:25:41.831Z,7.85
2019-03-22T18:28:14.064Z,10.72
2019-03-22T18:30:45.265Z,15.98
2019-03-22T18:33:16.572Z,24.77
2019-03-22T18:35:47.762Z,12.93
2019-03-22T18:38:19.370Z,16.80
2019-03-22T18:40:50.426Z,12.00
2019-03-22T18:43:22.018Z,9.08
2019-03-22T18:45:53.132Z,6.33
2019-03-22T18:48:24.516Z,7.95
2019-03-22T18:50:57.037Z,10.82
2019-03-22T18:53:29.702Z,9.08
2019-03-22T18:56:01.023Z,7.83
2019-03-22T18:58:32.202Z,7.62
2019-03-22T19:01:03.458Z,5.20
2019-03-22T19:03:34.697Z,8.20
2019-03-22T19:06:05.805Z,6.58
2019-03-22T19:08:36.969Z,7.80
2019-03-22T19:11:08.287Z,5.33
2019-03-22T19:13:39.527Z,5.20
2019-03-22T19:16:10.701Z,3.50
2019-03-22T19:18:42.745Z,4.87
2019-03-22T19:21:13.769Z,2.95
2019-03-22T19:23:44.921Z,3.85
2019-03-22T19:26:16.189Z,4.85
2019-03-22T19:28:47.296Z,2.98
2019-03-22T19:31:18.570Z,5.20
2019-03-22T19:33:49.741Z,22.67
2019-03-22T19:36:21.057Z,11.80
2019-03-22T19:38:52.199Z,21.65
2019-03-22T19:41:23.359Z,5.33
2019-03-22T19:43:54.379Z,3.95
2019-03-22T19:46:25.421Z,3.92
2019-03-22T19:48:56.461Z,5.15
2019-03-22T19:51:27.491Z,12.37
2019-03-22T19:53:58.484Z,10.00
2019-03-22T19:56:29.807Z,8.55
2019-03-22T19:59:01.383Z,11.35
2019-03-22T20:01:32.595Z,8.65
2019-03-22T20:04:03.600Z,7.12
2019-03-22T20:06:34.903Z,8.38
2019-03-22T20:09:08.749Z,6.08
2019-03-22T20:11:39.997Z,6.22
2019-03-22T20:14:11.043Z,7.80
2019-03-22T20:16:42.085Z,8.70
2019-03-22T20:19:13.099Z,11.65
2019-03-22T20:21:44.211Z,10.18
2019-03-22T20:24:15.410Z,9.85
2019-03-22T20:26:46.486Z,8.08
2019-03-22T20:29:19.108Z,8.30
2019-03-22T20:31:50.104Z,9.23
2019-03-22T20:34:21.065Z,8.28
2019-03-22T20:36:52.206Z,7.15
2019-03-22T20:39:23.115Z,8.60
2019-03-22T20:41:54.131Z,8.58
2019-03-22T20:44:33.586Z,9.35
2019-03-22T20:46:57.924Z,10.70
2019-03-22T20:49:29.070Z,12.93
2019-03-22T20:52:00.244Z,13.15
2019-03-22T20:54:31.386Z,10.28
2019-03-22T20:57:02.587Z,10.08
2019-03-22T20:59:33.659Z,11.15
2019-03-22T21:02:04.734Z,11.12
2019-03-22T21:04:35.907Z,10.15
2019-03-22T21:07:07.105Z,11.22
2019-03-22T21:09:38.216Z,13.10
2019-03-22T21:12:09.435Z,11.90
2019-03-22T21:14:40.681Z,15.83
2019-03-22T21:17:12.036Z,18.35
2019-03-22T21:19:43.247Z,13.43
2019-03-22T21:22:14.317Z,13.25
2019-03-22T21:24:45.425Z,8.75
2019-03-22T21:27:16.484Z,8.63
2019-03-22T21:29:47.717Z,8.40
2019-03-22T21:32:18.814Z,8.70
2019-03-22T21:34:49.816Z,8.55
2019-03-22T21:37:20.926Z,6.47
2019-03-22T21:39:52.124Z,5.33
2019-03-22T21:42:23.626Z,5.30
2019-03-22T21:44:55.147Z,5.33
2019-03-22T21:47:26.165Z,4.78
2019-03-22T21:49:57.240Z,4.65
2019-03-22T21:52:28.181Z,5.15
2019-03-22T21:54:59.199Z,4.70
2019-03-22T21:57:30.188Z,5.25
2019-03-22T22:00:01.282Z,5.05
2019-03-22T22:02:32.217Z,4.92
2019-03-22T22:05:03.152Z,5.85
2019-03-22T22:07:34.177Z,6.60
2019-03-22T22:10:06.814Z,8.45
2019-03-22T22:12:37.954Z,6.73
2019-03-22T22:15:13.325Z,5.65
2019-03-22T22:17:44.763Z,4.70
2019-03-22T22:20:15.738Z,4.40
2019-03-22T22:22:46.708Z,4.47
2019-03-22T22:25:17.714Z,4.12
2019-03-22T22:27:48.658Z,4.05
2019-03-22T22:30:20.274Z,4.03
2019-03-22T22:32:51.621Z,3.77
2019-03-22T22:35:22.845Z,4.33
2019-03-22T22:37:54.210Z,4.35
2019-03-22T22:40:25.312Z,3.98
2019-03-22T22:42:56.570Z,3.55
2019-03-22T22:45:27.596Z,4.00
2019-03-22T22:47:58.633Z,4.67
2019-03-22T22:50:29.625Z,5.50
2019-03-22T22:53:00.613Z,5.62
2019-03-22T22:55:31.646Z,4.90
2019-03-22T22:58:02.606Z,4.70
2019-03-22T23:00:33.618Z,5.58
2019-03-22T23:03:05.111Z,5.28
2019-03-22T23:05:36.402Z,6.17
2019-03-22T23:08:08.336Z,7.10
2019-03-22T23:10:39.614Z,6.95
2019-03-22T23:13:10.634Z,7.30
2019-03-22T23:15:41.734Z,6.30
2019-03-22T23:18:12.673Z,5.47
2019-03-22T23:20:43.655Z,5.70
2019-03-22T23:23:14.734Z,5.72
2019-03-22T23:25:45.703Z,6.20
2019-03-22T23:28:16.841Z,4.40
2019-03-22T23:30:48.911Z,4.85
2019-03-22T23:33:20.966Z,3.70
2019-03-22T23:35:52.015Z,3.02
2019-03-22T23:38:23.057Z,3.17
2019-03-22T23:40:54.262Z,2.70
2019-03-22T23:43:25.299Z,3.35
2019-03-22T23:45:56.485Z,3.80
2019-03-22T23:48:27.502Z,4.17
2019-03-22T23:50:58.469Z,3.92
2019-03-22T23:53:29.424Z,3.37
2019-03-22T23:56:00.430Z,2.70
2019-03-22T23:58:31.553Z,2.80
